High Roller — WDD2839 — position and weather

sailwx.info

Track history (hours):
 
Tides and Currents Weather Stations Pressure Air Temp Water Temp Dewpoint Dewpoint Depression Visibility Wind Speed Wind Dir Waves Ship Positions

High Roller

Owner: HAYS TUG & LAUNCH SERVICE INC, WALLINGFORD, PA. More information available from US FCC via Universal Licensing System and Coast Guard Vessel Documentation Center.

Last reported at 2018-Feb-24 04:00 UTC. Time now 2018-Feb-24 04:02 UTC.
Position N 39°50' W 075°23'.

Length 33 m.

Type: Tug. MMSI: 367120550.

Date/timePositionNaut miles runAvg speedWind from/ knotsBaromVisibWave heightAir tempDewpointWater temp
2018-Feb-24 04:00N 39°50' W 075°23'0 0.0
2018-Feb-24 03:30N 39°50' W 075°23'0 0.0
2018-Feb-24 03:00N 39°50' W 075°23'0 0.0
2018-Feb-24 02:30N 39°50' W 075°23'0 0.0
2018-Feb-24 02:00N 39°50' W 075°23'0 0.0
2018-Feb-24 01:30N 39°50' W 075°23'0 0.0
2018-Feb-24 01:01N 39°50' W 075°23'0 0.0
2018-Feb-24 00:30N 39°50' W 075°23'0 0.0
2018-Feb-24 00:01N 39°50' W 075°23'0 0.0
2018-Feb-23 23:30N 39°50' W 075°23'0 0.0
2018-Feb-23 23:01N 39°50' W 075°23'0 0.0
2018-Feb-23 22:31N 39°50' W 075°23'1 1.0
2018-Feb-23 22:00N 39°50' W 075°22'3 7.0
2018-Feb-23 21:30N 39°51' W 075°18'4 8.8
2018-Feb-23 21:00N 39°52' W 075°13'2 3.2
2018-Feb-23 20:30N 39°54' W 075°13'1 1.5
2018-Feb-23 20:01N 39°54' W 075°12'2 4.9
2018-Feb-23 19:31N 39°53' W 075°09'3 6.9
2018-Feb-23 19:00N 39°56' W 075°08'4 7.0
2018-Feb-23 18:31N 39°59' W 075°05'1 1.4
2018-Feb-23 18:00N 39°59' W 075°06'4 7.4
2018-Feb-23 17:30N 39°55' W 075°08'3 6.7
2018-Feb-23 17:01N 39°53' W 075°11'4 7.1
2018-Feb-23 16:31N 39°51' W 075°15'0 0.0
2018-Feb-23 16:00N 39°51' W 075°15'0 0.1
2018-Feb-23 15:31N 39°51' W 075°15'0 0.1
2018-Feb-23 15:01N 39°51' W 075°15'0 0.0
2018-Feb-23 14:30N 39°51' W 075°15'2 4.9
2018-Feb-23 14:01N 39°51' W 075°18'4 7.9
2018-Feb-23 13:31N 39°50' W 075°23'1 1.1
2018-Feb-23 13:00N 39°49' W 075°23'2 3.8
2018-Feb-23 12:31N 39°48' W 075°25'2 4.7
2018-Feb-23 12:00N 39°50' W 075°23'0 0.0
2018-Feb-23 11:30N 39°50' W 075°23'0 0.0
2018-Feb-23 11:00N 39°50' W 075°23'0 0.0
2018-Feb-23 10:31N 39°50' W 075°23'0 0.0
2018-Feb-23 10:00N 39°50' W 075°23'0 0.0
2018-Feb-23 09:31N 39°50' W 075°23'1 2.3
2018-Feb-23 09:01N 39°49' W 075°21'0 0.9
2018-Feb-23 08:31N 39°50' W 075°22'2 4.9
2018-Feb-23 08:00N 39°51' W 075°19'3 5.8
2018-Feb-23 07:30N 39°51' W 075°16'3 6.5
2018-Feb-23 07:01N 39°53' W 075°12'3 6.5
2018-Feb-23 06:30N 39°54' W 075°08'4 7.7
2018-Feb-23 06:01N 39°58' W 075°08'4 7.9
2018-Feb-23 05:30N 40°00' W 075°03'4 8.3
2018-Feb-23 05:00N 40°03' W 074°59'4 8.4
2018-Feb-23 04:31N 40°04' W 074°54'4 7.0
2018-Feb-23 04:00N 40°06' W 074°50'3 6.7
2018-Feb-23 03:30N 40°08' W 074°46'1 0.2
2018-Feb-22 20:35N 40°08' W 074°45'0 0.0
2018-Feb-22 20:23N 40°08' W 074°45'0 0.0
2018-Feb-22 16:17N 40°08' W 074°45'0 0.0
2018-Feb-22 15:59N 40°08' W 074°45'0 0.0
2018-Feb-22 14:47N 40°08' W 074°45'0 0.0
2018-Feb-22 14:26N 40°08' W 074°45'0 0.0
2018-Feb-22 13:59N 40°08' W 074°45'0 0.0
2018-Feb-22 12:29N 40°08' W 074°45'0 0.0
2018-Feb-22 11:53N 40°08' W 074°45'0 0.0
2018-Feb-22 10:53N 40°08' W 074°45'0 0.0
2018-Feb-22 09:59N 40°08' W 074°45'0 0.0
2018-Feb-22 09:14N 40°08' W 074°45'0 0.0
2018-Feb-22 08:44N 40°08' W 074°45'0 0.0
2018-Feb-22 07:44N 40°08' W 074°45'0 0.0
2018-Feb-22 07:30N 40°08' W 074°45'3 4.8
2018-Feb-22 06:55N 40°08' W 074°49'3 6.3
2018-Feb-22 06:30N 40°06' W 074°51'3 6.5
2018-Feb-22 06:00N 40°04' W 074°55'3 6.5
2018-Feb-22 05:30N 40°03' W 074°59'3 6.5
2018-Feb-22 05:01N 40°01' W 075°02'3 6.2
2018-Feb-22 04:31N 39°59' W 075°05'3 6.0
2018-Feb-22 04:00N 39°57' W 075°08'3 6.4
2018-Feb-22 03:31N 39°54' W 075°08'3 5.7
2018-Feb-22 03:01N 39°53' W 075°12'3 6.2
2018-Feb-22 02:30N 39°51' W 075°15'3 6.1
2018-Feb-22 02:00N 39°51' W 075°19'2 5.0
2018-Feb-22 01:31N 39°49' W 075°22'0 0.2
2018-Feb-22 01:00N 39°50' W 075°22'4 8.4
2018-Feb-22 00:30N 39°51' W 075°17'5 9.7
2018-Feb-22 00:01N 39°54' W 075°12'1 1.1
2018-Feb-21 23:31N 39°53' W 075°12'4 7.4
2018-Feb-21 23:00N 39°55' W 075°08'4 8.2
2018-Feb-21 22:31N 39°59' W 075°05'0 0.6
2018-Feb-21 22:01N 39°59' W 075°05'3 6.9
2018-Feb-21 21:31N 39°57' W 075°08'4 8.3
2018-Feb-21 21:01N 39°53' W 075°10'2 4.6
2018-Feb-21 20:31N 39°54' W 075°13'0 0.2
2018-Feb-21 20:00N 39°54' W 075°13'0 0.1
2018-Feb-21 19:30N 39°54' W 075°13'2 4.1
2018-Feb-21 19:00N 39°53' W 075°10'2 5.0
2018-Feb-21 18:30N 39°54' W 075°08'3 6.5
2018-Feb-21 18:01N 39°58' W 075°08'3 5.4
2018-Feb-21 17:29N 39°59' W 075°05'0 0.0
2018-Feb-21 16:56N 39°59' W 075°05'0 0.0
2018-Feb-21 16:29N 39°59' W 075°05'0 0.0
2018-Feb-21 15:59N 39°59' W 075°05'0 0.0
2018-Feb-21 15:29N 39°59' W 075°05'0 0.0
2018-Feb-21 14:59N 39°59' W 075°05'0 0.0
2018-Feb-21 14:29N 39°59' W 075°05'0 0.0
2018-Feb-21 13:59N 39°59' W 075°05'0 0.0
2018-Feb-21 13:29N 39°59' W 075°05'0 0.0
2018-Feb-21 12:59N 39°59' W 075°05'0 0.0
2018-Feb-21 12:30N 39°59' W 075°05'0 0.0
2018-Feb-21 12:00N 39°59' W 075°05'0 0.4
2018-Feb-21 11:30N 39°59' W 075°05'4 7.5
2018-Feb-21 11:00N 39°56' W 075°08'4 7.0
2018-Feb-21 10:30N 39°53' W 075°10'2 4.9
2018-Feb-21 10:00N 39°54' W 075°13'1 1.6
2018-Feb-21 09:30N 39°54' W 075°12'1 0.1
2018-Feb-20 22:13N 39°54' W 075°13'0 0.5
2018-Feb-20 22:00N 39°54' W 075°13'1 2.1
2018-Feb-20 21:30N 39°53' W 075°12'2 4.7
2018-Feb-20 21:00N 39°53' W 075°09'3 5.5
2018-Feb-20 20:30N 39°56' W 075°08'2 4.9
2018-Feb-20 20:00N 39°58' W 075°07'2 4.1
2018-Feb-20 19:30N 39°59' W 075°05'4 7.8
2018-Feb-20 19:00N 39°56' W 075°08'2 4.3
2018-Feb-20 18:30N 39°54' W 075°08'1 1.4
2018-Feb-20 18:00N 39°55' W 075°08'4 7.9
2018-Feb-20 17:30N 39°58' W 075°06'2 3.1
2018-Feb-20 17:00N 39°59' W 075°05'0 0.0
2018-Feb-20 16:31N 39°59' W 075°05'0 0.0
2018-Feb-20 16:00N 39°59' W 075°05'0 0.0
2018-Feb-20 15:30N 39°59' W 075°05'0 0.0
2018-Feb-20 15:00N 39°59' W 075°05'0 0.0
2018-Feb-20 14:30N 39°59' W 075°05'0 0.0
2018-Feb-20 14:00N 39°59' W 075°05'0 0.7
2018-Feb-20 13:30N 39°59' W 075°05'0 0.8
2018-Feb-20 13:00N 39°59' W 075°04'0 0.5
2018-Feb-20 12:31N 39°59' W 075°05'0 0.0
2018-Feb-20 12:00N 39°59' W 075°05'2 3.9
2018-Feb-20 11:30N 39°58' W 075°07'3 6.5
2018-Feb-20 11:00N 39°55' W 075°08'3 6.1
2018-Feb-20 10:30N 39°53' W 075°11'2 3.6
2018-Feb-20 10:00N 39°54' W 075°13'1 1.5
2018-Feb-20 09:30N 39°54' W 075°12'0 0.0
2018-Feb-19 20:46N 39°54' W 075°12'1 2.9
2018-Feb-19 20:30N 39°54' W 075°13'1 2.6
2018-Feb-19 20:00N 39°53' W 075°12'3 5.2
2018-Feb-19 19:30N 39°53' W 075°08'3 5.5
2018-Feb-19 18:59N 39°56' W 075°08'2 4.9
2018-Feb-19 18:30N 39°58' W 075°07'2 3.7
2018-Feb-19 18:00N 39°59' W 075°05'0 0.0
2018-Feb-19 17:30N 39°59' W 075°05'0 0.0
2018-Feb-19 17:00N 39°59' W 075°05'0 0.0
2018-Feb-19 16:30N 39°59' W 075°05'2 3.8
2018-Feb-19 16:00N 39°58' W 075°07'4 8.2
2018-Feb-19 15:30N 39°54' W 075°08'0 0.5
2018-Feb-19 15:00N 39°54' W 075°08'3 5.1
2018-Feb-19 14:31N 39°53' W 075°11'1 2.2
2018-Feb-19 14:01N 39°54' W 075°12'3 6.6
2018-Feb-19 13:30N 39°55' W 075°08'5 9.3
2018-Feb-19 13:00N 39°59' W 075°05'0 0.0
2018-Feb-19 12:30N 39°59' W 075°05'3 6.4
2018-Feb-19 12:01N 39°57' W 075°08'4 7.1
2018-Feb-19 11:31N 39°53' W 075°08'3 5.3
2018-Feb-19 11:00N 39°53' W 075°12'1 2.1
2018-Feb-19 10:30N 39°54' W 075°13'4 7.5
2018-Feb-19 10:01N 39°54' W 075°08'3 6.7
2018-Feb-19 09:30N 39°57' W 075°08'0 0.4
2018-Feb-19 09:00N 39°57' W 075°08'3 5.6
2018-Feb-19 08:30N 39°55' W 075°08'3 0.2
2018-Feb-18 19:11N 39°54' W 075°12'0 2.9
2018-Feb-18 19:00N 39°54' W 075°12'0 0.6
2018-Feb-18 18:30N 39°54' W 075°12'1 2.9
2018-Feb-18 18:00N 39°53' W 075°10'2 4.7
2018-Feb-18 17:30N 39°54' W 075°08'3 5.5
2018-Feb-18 17:00N 39°57' W 075°08'3 5.6
2018-Feb-18 16:30N 39°59' W 075°05'1 0.3
2018-Feb-18 14:01N 39°59' W 075°05'0 0.4
2018-Feb-18 14:00N 39°59' W 075°05'0 0.0
2018-Feb-18 13:30N 39°59' W 075°05'0 0.0
2018-Feb-18 13:00N 39°59' W 075°05'0 0.0
2018-Feb-18 12:31N 39°59' W 075°05'0 0.0
2018-Feb-18 12:00N 39°59' W 075°05'0 1.0
2018-Feb-18 11:30N 39°59' W 075°05'3 6.7
2018-Feb-18 11:01N 39°56' W 075°08'3 7.0
2018-Feb-18 10:31N 39°53' W 075°09'3 6.2
2018-Feb-18 10:00N 39°54' W 075°13'0 0.2
2018-Feb-18 09:30N 39°54' W 075°13'7 0.2
2018-Feb-16 18:54N 39°58' W 075°06'4 9.5
2018-Feb-16 18:30N 39°55' W 075°08'3 6.6
2018-Feb-16 18:00N 39°54' W 075°12'0 0.0
2018-Feb-15 18:49N 39°54' W 075°12'1 2.8
2018-Feb-15 18:30N 39°53' W 075°11'3 6.8
2018-Feb-15 18:00N 39°55' W 075°08'2 4.4
2018-Feb-15 17:31N 39°57' W 075°08'3 5.3
2018-Feb-15 17:01N 39°55' W 075°08'4 7.5
2018-Feb-15 16:30N 39°53' W 075°12'2 4.0
2018-Feb-15 16:01N 39°51' W 075°14'0 0.0
2018-Feb-15 15:31N 39°51' W 075°14'0 0.0
2018-Feb-15 15:00N 39°51' W 075°14'0 0.0
2018-Feb-15 14:30N 39°51' W 075°14'0 0.0
2018-Feb-15 14:01N 39°51' W 075°14'0 0.0
2018-Feb-15 13:30N 39°51' W 075°14'0 0.0
2018-Feb-15 13:00N 39°51' W 075°14'0 0.1
2018-Feb-15 12:31N 39°51' W 075°14'2 4.1
2018-Feb-15 12:00N 39°53' W 075°12'4 7.4
2018-Feb-15 11:30N 39°55' W 075°08'3 5.2
2018-Feb-15 11:00N 39°57' W 075°08'0 0.0
2018-Feb-15 10:30N 39°57' W 075°08'0 0.0
2018-Feb-15 10:00N 39°57' W 075°08'3 5.3
2018-Feb-15 09:28N 39°59' W 075°05'0 0.0
2018-Feb-15 08:55N 39°59' W 075°05'0 0.0
2018-Feb-15 08:28N 39°59' W 075°05'0 0.0
2018-Feb-15 07:58N 39°59' W 075°05'0 0.0
2018-Feb-15 07:28N 39°59' W 075°05'0 0.0
2018-Feb-15 06:58N 39°59' W 075°05'0 0.0
2018-Feb-15 06:25N 39°59' W 075°05'0 0.0
2018-Feb-15 05:55N 39°59' W 075°05'0 0.0
2018-Feb-15 05:28N 39°59' W 075°05'0 0.0
2018-Feb-15 04:58N 39°59' W 075°05'0 0.0
2018-Feb-15 04:28N 39°59' W 075°05'0 0.0
2018-Feb-15 04:01N 39°59' W 075°05'0 0.2
2018-Feb-15 03:30N 39°59' W 075°05'4 8.1
2018-Feb-15 03:00N 39°56' W 075°08'4 7.1
2018-Feb-15 02:30N 39°53' W 075°11'2 3.4
2018-Feb-15 02:00N 39°54' W 075°13'3 6.3
2018-Feb-15 01:30N 39°53' W 075°09'1 1.8
2018-Feb-15 01:00N 39°54' W 075°08'1 2.9
2018-Feb-15 00:30N 39°53' W 075°10'2 3.3
2018-Feb-15 00:00N 39°54' W 075°12'0 0.0
2018-Feb-14 23:31N 39°54' W 075°12'0 0.8
2018-Feb-14 23:00N 39°54' W 075°12'0 0.5
2018-Feb-14 22:31N 39°54' W 075°12'3 5.4
2018-Feb-14 22:00N 39°53' W 075°09'4 8.2
2018-Feb-14 21:31N 39°57' W 075°08'3 6.3
2018-Feb-14 21:00N 39°59' W 075°05'0 0.0
2018-Feb-14 20:31N 39°59' W 075°05'0 0.0
2018-Feb-14 20:00N 39°59' W 075°05'3 6.5
2018-Feb-14 19:31N 39°57' W 075°08'4 8.5
2018-Feb-14 19:00N 39°53' W 075°09'2 4.7
2018-Feb-14 18:30N 39°54' W 075°12'2 5.1
2018-Feb-14 18:00N 39°53' W 075°09'1 1.5
2018-Feb-14 17:30N 39°53' W 075°10'3 5.8
2018-Feb-14 17:00N 39°55' W 075°13'0 0.1
2018-Feb-14 16:31N 39°55' W 075°13'2 4.4
2018-Feb-14 16:00N 39°52' W 075°12'1 3.0
2018-Feb-14 15:30N 39°51' W 075°14'2 4.6
2018-Feb-14 15:00N 39°51' W 075°17'4 7.8
2018-Feb-14 14:30N 39°50' W 075°22'2 4.0
2018-Feb-14 14:00N 39°51' W 075°19'4 8.2
2018-Feb-14 13:30N 39°52' W 075°14'5 9.1
2018-Feb-14 13:00N 39°53' W 075°08'5 9.7
2018-Feb-14 12:30N 39°58' W 075°07'2 4.3
2018-Feb-14 12:00N 39°59' W 075°05'3 6.4
2018-Feb-14 11:30N 39°57' W 075°08'4 7.3
2018-Feb-14 11:00N 39°54' W 075°08'3 5.2
2018-Feb-14 10:30N 39°53' W 075°12'  
Track history (hours):
 
Tides and Currents Weather Stations Pressure Air Temp Water Temp Dewpoint Dewpoint Depression Visibility Wind Speed Wind Dir Waves Ship Positions

High Roller

Owner: HAYS TUG & LAUNCH SERVICE INC, WALLINGFORD, PA. More information available from US FCC via Universal Licensing System and Coast Guard Vessel Documentation Center.

Last reported at 2018-Feb-24 04:00 UTC. Time now 2018-Feb-24 04:02 UTC.
Position N 39°50' W 075°23'.

Length 33 m.

Type: Tug. MMSI: 367120550.

Date/timePositionNaut miles runAvg speedWind from/ knotsBaromVisibWave heightAir tempDewpointWater temp
2018-Feb-24 04:00N 39°50' W 075°23'0 0.0
2018-Feb-24 03:30N 39°50' W 075°23'0 0.0
2018-Feb-24 03:00N 39°50' W 075°23'0 0.0
2018-Feb-24 02:30N 39°50' W 075°23'0 0.0
2018-Feb-24 02:00N 39°50' W 075°23'0 0.0
2018-Feb-24 01:30N 39°50' W 075°23'0 0.0
2018-Feb-24 01:01N 39°50' W 075°23'0 0.0
2018-Feb-24 00:30N 39°50' W 075°23'0 0.0
2018-Feb-24 00:01N 39°50' W 075°23'0 0.0
2018-Feb-23 23:30N 39°50' W 075°23'0 0.0
2018-Feb-23 23:01N 39°50' W 075°23'0 0.0
2018-Feb-23 22:31N 39°50' W 075°23'1 1.0
2018-Feb-23 22:00N 39°50' W 075°22'3 7.0
2018-Feb-23 21:30N 39°51' W 075°18'4 8.8
2018-Feb-23 21:00N 39°52' W 075°13'2 3.2
2018-Feb-23 20:30N 39°54' W 075°13'1 1.5
2018-Feb-23 20:01N 39°54' W 075°12'2 4.9
2018-Feb-23 19:31N 39°53' W 075°09'3 6.9
2018-Feb-23 19:00N 39°56' W 075°08'4 7.0
2018-Feb-23 18:31N 39°59' W 075°05'1 1.4
2018-Feb-23 18:00N 39°59' W 075°06'4 7.4
2018-Feb-23 17:30N 39°55' W 075°08'3 6.7
2018-Feb-23 17:01N 39°53' W 075°11'4 7.1
2018-Feb-23 16:31N 39°51' W 075°15'0 0.0
2018-Feb-23 16:00N 39°51' W 075°15'0 0.1
2018-Feb-23 15:31N 39°51' W 075°15'0 0.1
2018-Feb-23 15:01N 39°51' W 075°15'0 0.0
2018-Feb-23 14:30N 39°51' W 075°15'2 4.9
2018-Feb-23 14:01N 39°51' W 075°18'4 7.9
2018-Feb-23 13:31N 39°50' W 075°23'1 1.1
2018-Feb-23 13:00N 39°49' W 075°23'2 3.8
2018-Feb-23 12:31N 39°48' W 075°25'2 4.7
2018-Feb-23 12:00N 39°50' W 075°23'0 0.0
2018-Feb-23 11:30N 39°50' W 075°23'0 0.0
2018-Feb-23 11:00N 39°50' W 075°23'0 0.0
2018-Feb-23 10:31N 39°50' W 075°23'0 0.0
2018-Feb-23 10:00N 39°50' W 075°23'0 0.0
2018-Feb-23 09:31N 39°50' W 075°23'1 2.3
2018-Feb-23 09:01N 39°49' W 075°21'0 0.9
2018-Feb-23 08:31N 39°50' W 075°22'2 4.9
2018-Feb-23 08:00N 39°51' W 075°19'3 5.8
2018-Feb-23 07:30N 39°51' W 075°16'3 6.5
2018-Feb-23 07:01N 39°53' W 075°12'3 6.5
2018-Feb-23 06:30N 39°54' W 075°08'4 7.7
2018-Feb-23 06:01N 39°58' W 075°08'4 7.9
2018-Feb-23 05:30N 40°00' W 075°03'4 8.3
2018-Feb-23 05:00N 40°03' W 074°59'4 8.4
2018-Feb-23 04:31N 40°04' W 074°54'4 7.0
2018-Feb-23 04:00N 40°06' W 074°50'3 6.7
2018-Feb-23 03:30N 40°08' W 074°46'1 0.2
2018-Feb-22 20:35N 40°08' W 074°45'0 0.0
2018-Feb-22 20:23N 40°08' W 074°45'0 0.0
2018-Feb-22 16:17N 40°08' W 074°45'0 0.0
2018-Feb-22 15:59N 40°08' W 074°45'0 0.0
2018-Feb-22 14:47N 40°08' W 074°45'0 0.0
2018-Feb-22 14:26N 40°08' W 074°45'0 0.0
2018-Feb-22 13:59N 40°08' W 074°45'0 0.0
2018-Feb-22 12:29N 40°08' W 074°45'0 0.0
2018-Feb-22 11:53N 40°08' W 074°45'0 0.0
2018-Feb-22 10:53N 40°08' W 074°45'0 0.0
2018-Feb-22 09:59N 40°08' W 074°45'0 0.0
2018-Feb-22 09:14N 40°08' W 074°45'0 0.0
2018-Feb-22 08:44N 40°08' W 074°45'0 0.0
2018-Feb-22 07:44N 40°08' W 074°45'0 0.0
2018-Feb-22 07:30N 40°08' W 074°45'3 4.8
2018-Feb-22 06:55N 40°08' W 074°49'3 6.3
2018-Feb-22 06:30N 40°06' W 074°51'3 6.5
2018-Feb-22 06:00N 40°04' W 074°55'3 6.5
2018-Feb-22 05:30N 40°03' W 074°59'3 6.5
2018-Feb-22 05:01N 40°01' W 075°02'3 6.2
2018-Feb-22 04:31N 39°59' W 075°05'3 6.0
2018-Feb-22 04:00N 39°57' W 075°08'3 6.4
2018-Feb-22 03:31N 39°54' W 075°08'3 5.7
2018-Feb-22 03:01N 39°53' W 075°12'3 6.2
2018-Feb-22 02:30N 39°51' W 075°15'3 6.1
2018-Feb-22 02:00N 39°51' W 075°19'2 5.0
2018-Feb-22 01:31N 39°49' W 075°22'0 0.2
2018-Feb-22 01:00N 39°50' W 075°22'4 8.4
2018-Feb-22 00:30N 39°51' W 075°17'5 9.7
2018-Feb-22 00:01N 39°54' W 075°12'1 1.1
2018-Feb-21 23:31N 39°53' W 075°12'4 7.4
2018-Feb-21 23:00N 39°55' W 075°08'4 8.2
2018-Feb-21 22:31N 39°59' W 075°05'0 0.6
2018-Feb-21 22:01N 39°59' W 075°05'3 6.9
2018-Feb-21 21:31N 39°57' W 075°08'4 8.3
2018-Feb-21 21:01N 39°53' W 075°10'2 4.6
2018-Feb-21 20:31N 39°54' W 075°13'0 0.2
2018-Feb-21 20:00N 39°54' W 075°13'0 0.1
2018-Feb-21 19:30N 39°54' W 075°13'2 4.1
2018-Feb-21 19:00N 39°53' W 075°10'2 5.0
2018-Feb-21 18:30N 39°54' W 075°08'3 6.5
2018-Feb-21 18:01N 39°58' W 075°08'3 5.4
2018-Feb-21 17:29N 39°59' W 075°05'0 0.0
2018-Feb-21 16:56N 39°59' W 075°05'0 0.0
2018-Feb-21 16:29N 39°59' W 075°05'0 0.0
2018-Feb-21 15:59N 39°59' W 075°05'0 0.0
2018-Feb-21 15:29N 39°59' W 075°05'0 0.0
2018-Feb-21 14:59N 39°59' W 075°05'0 0.0
2018-Feb-21 14:29N 39°59' W 075°05'0 0.0
2018-Feb-21 13:59N 39°59' W 075°05'0 0.0
2018-Feb-21 13:29N 39°59' W 075°05'0 0.0
2018-Feb-21 12:59N 39°59' W 075°05'0 0.0
2018-Feb-21 12:30N 39°59' W 075°05'0 0.0
2018-Feb-21 12:00N 39°59' W 075°05'0 0.4
2018-Feb-21 11:30N 39°59' W 075°05'4 7.5
2018-Feb-21 11:00N 39°56' W 075°08'4 7.0
2018-Feb-21 10:30N 39°53' W 075°10'2 4.9
2018-Feb-21 10:00N 39°54' W 075°13'1 1.6
2018-Feb-21 09:30N 39°54' W 075°12'1 0.1
2018-Feb-20 22:13N 39°54' W 075°13'0 0.5
2018-Feb-20 22:00N 39°54' W 075°13'1 2.1
2018-Feb-20 21:30N 39°53' W 075°12'2 4.7
2018-Feb-20 21:00N 39°53' W 075°09'3 5.5
2018-Feb-20 20:30N 39°56' W 075°08'2 4.9
2018-Feb-20 20:00N 39°58' W 075°07'2 4.1
2018-Feb-20 19:30N 39°59' W 075°05'4 7.8
2018-Feb-20 19:00N 39°56' W 075°08'2 4.3
2018-Feb-20 18:30N 39°54' W 075°08'1 1.4
2018-Feb-20 18:00N 39°55' W 075°08'4 7.9
2018-Feb-20 17:30N 39°58' W 075°06'2 3.1
2018-Feb-20 17:00N 39°59' W 075°05'0 0.0
2018-Feb-20 16:31N 39°59' W 075°05'0 0.0
2018-Feb-20 16:00N 39°59' W 075°05'0 0.0
2018-Feb-20 15:30N 39°59' W 075°05'0 0.0
2018-Feb-20 15:00N 39°59' W 075°05'0 0.0
2018-Feb-20 14:30N 39°59' W 075°05'0 0.0
2018-Feb-20 14:00N 39°59' W 075°05'0 0.7
2018-Feb-20 13:30N 39°59' W 075°05'0 0.8
2018-Feb-20 13:00N 39°59' W 075°04'0 0.5
2018-Feb-20 12:31N 39°59' W 075°05'0 0.0
2018-Feb-20 12:00N 39°59' W 075°05'2 3.9
2018-Feb-20 11:30N 39°58' W 075°07'3 6.5
2018-Feb-20 11:00N 39°55' W 075°08'3 6.1
2018-Feb-20 10:30N 39°53' W 075°11'2 3.6
2018-Feb-20 10:00N 39°54' W 075°13'1 1.5
2018-Feb-20 09:30N 39°54' W 075°12'0 0.0
2018-Feb-19 20:46N 39°54' W 075°12'1 2.9
2018-Feb-19 20:30N 39°54' W 075°13'1 2.6
2018-Feb-19 20:00N 39°53' W 075°12'3 5.2
2018-Feb-19 19:30N 39°53' W 075°08'3 5.5
2018-Feb-19 18:59N 39°56' W 075°08'2 4.9
2018-Feb-19 18:30N 39°58' W 075°07'2 3.7
2018-Feb-19 18:00N 39°59' W 075°05'0 0.0
2018-Feb-19 17:30N 39°59' W 075°05'0 0.0
2018-Feb-19 17:00N 39°59' W 075°05'0 0.0
2018-Feb-19 16:30N 39°59' W 075°05'2 3.8
2018-Feb-19 16:00N 39°58' W 075°07'4 8.2
2018-Feb-19 15:30N 39°54' W 075°08'0 0.5
2018-Feb-19 15:00N 39°54' W 075°08'3 5.1
2018-Feb-19 14:31N 39°53' W 075°11'1 2.2
2018-Feb-19 14:01N 39°54' W 075°12'3 6.6
2018-Feb-19 13:30N 39°55' W 075°08'5 9.3
2018-Feb-19 13:00N 39°59' W 075°05'0 0.0
2018-Feb-19 12:30N 39°59' W 075°05'3 6.4
2018-Feb-19 12:01N 39°57' W 075°08'4 7.1
2018-Feb-19 11:31N 39°53' W 075°08'3 5.3
2018-Feb-19 11:00N 39°53' W 075°12'1 2.1
2018-Feb-19 10:30N 39°54' W 075°13'4 7.5
2018-Feb-19 10:01N 39°54' W 075°08'3 6.7
2018-Feb-19 09:30N 39°57' W 075°08'0 0.4
2018-Feb-19 09:00N 39°57' W 075°08'3 5.6
2018-Feb-19 08:30N 39°55' W 075°08'3 0.2
2018-Feb-18 19:11N 39°54' W 075°12'0 2.9
2018-Feb-18 19:00N 39°54' W 075°12'0 0.6
2018-Feb-18 18:30N 39°54' W 075°12'1 2.9
2018-Feb-18 18:00N 39°53' W 075°10'2 4.7
2018-Feb-18 17:30N 39°54' W 075°08'3 5.5
2018-Feb-18 17:00N 39°57' W 075°08'3 5.6
2018-Feb-18 16:30N 39°59' W 075°05'1 0.3
2018-Feb-18 14:01N 39°59' W 075°05'0 0.4
2018-Feb-18 14:00N 39°59' W 075°05'0 0.0
2018-Feb-18 13:30N 39°59' W 075°05'0 0.0
2018-Feb-18 13:00N 39°59' W 075°05'0 0.0
2018-Feb-18 12:31N 39°59' W 075°05'0 0.0
2018-Feb-18 12:00N 39°59' W 075°05'0 1.0
2018-Feb-18 11:30N 39°59' W 075°05'3 6.7
2018-Feb-18 11:01N 39°56' W 075°08'3 7.0
2018-Feb-18 10:31N 39°53' W 075°09'3 6.2
2018-Feb-18 10:00N 39°54' W 075°13'0 0.2
2018-Feb-18 09:30N 39°54' W 075°13'7 0.2
2018-Feb-16 18:54N 39°58' W 075°06'4 9.5
2018-Feb-16 18:30N 39°55' W 075°08'3 6.6
2018-Feb-16 18:00N 39°54' W 075°12'0 0.0
2018-Feb-15 18:49N 39°54' W 075°12'1 2.8
2018-Feb-15 18:30N 39°53' W 075°11'3 6.8
2018-Feb-15 18:00N 39°55' W 075°08'2 4.4
2018-Feb-15 17:31N 39°57' W 075°08'3 5.3
2018-Feb-15 17:01N 39°55' W 075°08'4 7.5
2018-Feb-15 16:30N 39°53' W 075°12'2 4.0
2018-Feb-15 16:01N 39°51' W 075°14'0 0.0
2018-Feb-15 15:31N 39°51' W 075°14'0 0.0
2018-Feb-15 15:00N 39°51' W 075°14'0 0.0
2018-Feb-15 14:30N 39°51' W 075°14'0 0.0
2018-Feb-15 14:01N 39°51' W 075°14'0 0.0
2018-Feb-15 13:30N 39°51' W 075°14'0 0.0
2018-Feb-15 13:00N 39°51' W 075°14'0 0.1
2018-Feb-15 12:31N 39°51' W 075°14'2 4.1
2018-Feb-15 12:00N 39°53' W 075°12'4 7.4
2018-Feb-15 11:30N 39°55' W 075°08'3 5.2
2018-Feb-15 11:00N 39°57' W 075°08'0 0.0
2018-Feb-15 10:30N 39°57' W 075°08'0 0.0
2018-Feb-15 10:00N 39°57' W 075°08'3 5.3
2018-Feb-15 09:28N 39°59' W 075°05'0 0.0
2018-Feb-15 08:55N 39°59' W 075°05'0 0.0
2018-Feb-15 08:28N 39°59' W 075°05'0 0.0
2018-Feb-15 07:58N 39°59' W 075°05'0 0.0
2018-Feb-15 07:28N 39°59' W 075°05'0 0.0
2018-Feb-15 06:58N 39°59' W 075°05'0 0.0
2018-Feb-15 06:25N 39°59' W 075°05'0 0.0
2018-Feb-15 05:55N 39°59' W 075°05'0 0.0
2018-Feb-15 05:28N 39°59' W 075°05'0 0.0
2018-Feb-15 04:58N 39°59' W 075°05'0 0.0
2018-Feb-15 04:28N 39°59' W 075°05'0 0.0
2018-Feb-15 04:01N 39°59' W 075°05'0 0.2
2018-Feb-15 03:30N 39°59' W 075°05'4 8.1
2018-Feb-15 03:00N 39°56' W 075°08'4 7.1
2018-Feb-15 02:30N 39°53' W 075°11'2 3.4
2018-Feb-15 02:00N 39°54' W 075°13'3 6.3
2018-Feb-15 01:30N 39°53' W 075°09'1 1.8
2018-Feb-15 01:00N 39°54' W 075°08'1 2.9
2018-Feb-15 00:30N 39°53' W 075°10'2 3.3
2018-Feb-15 00:00N 39°54' W 075°12'0 0.0
2018-Feb-14 23:31N 39°54' W 075°12'0 0.8
2018-Feb-14 23:00N 39°54' W 075°12'0 0.5
2018-Feb-14 22:31N 39°54' W 075°12'3 5.4
2018-Feb-14 22:00N 39°53' W 075°09'4 8.2
2018-Feb-14 21:31N 39°57' W 075°08'3 6.3
2018-Feb-14 21:00N 39°59' W 075°05'0 0.0
2018-Feb-14 20:31N 39°59' W 075°05'0 0.0
2018-Feb-14 20:00N 39°59' W 075°05'3 6.5
2018-Feb-14 19:31N 39°57' W 075°08'4 8.5
2018-Feb-14 19:00N 39°53' W 075°09'2 4.7
2018-Feb-14 18:30N 39°54' W 075°12'2 5.1
2018-Feb-14 18:00N 39°53' W 075°09'1 1.5
2018-Feb-14 17:30N 39°53' W 075°10'3 5.8
2018-Feb-14 17:00N 39°55' W 075°13'0 0.1
2018-Feb-14 16:31N 39°55' W 075°13'2 4.4
2018-Feb-14 16:00N 39°52' W 075°12'1 3.0
2018-Feb-14 15:30N 39°51' W 075°14'2 4.6
2018-Feb-14 15:00N 39°51' W 075°17'4 7.8
2018-Feb-14 14:30N 39°50' W 075°22'2 4.0
2018-Feb-14 14:00N 39°51' W 075°19'4 8.2
2018-Feb-14 13:30N 39°52' W 075°14'5 9.1
2018-Feb-14 13:00N 39°53' W 075°08'5 9.7
2018-Feb-14 12:30N 39°58' W 075°07'2 4.3
2018-Feb-14 12:00N 39°59' W 075°05'3 6.4
2018-Feb-14 11:30N 39°57' W 075°08'4 7.3
2018-Feb-14 11:00N 39°54' W 075°08'3 5.2
2018-Feb-14 10:30N 39°53' W 075°12'  

Dump ship's entire track history